スヴァールバル空港の過去48時間の天気

スヴァールバル空港 (Svalbard Lufthavn)

現在時刻: 9/16 05:08 CEST (9/16 03:08 UTC) 以下の時間は現地時間です。

過去48時間のMETAR気象情報
時間 風向 風速(m/s) 視程 気温(℃) 湿度(%) 気圧(hPa) 天気現象
16 04:50 東南東 11 10km以上 4 70 1014 周辺でしゅう雨
16 03:50 東南東 9 10km以上 4 70 1014 弱い雨
16 02:50 東南東 9 10km以上 4 75 1013
16 01:50 南東 8 10km以上 5 75 1013
16 00:50 東南東 9 10km以上 6 70 1012
15 23:50 東南東 8 10km以上 5 75 1011
15 22:50 東南東 8 10km以上 6 65 1011
15 22:20 東南東 11 10km以上 6 70 1010
15 20:50 南東 13 10km以上 5 75 1009
15 18:50 東南東 10 10km以上 6 70 1008
15 17:50 東南東 9 10km以上 6 70 1007
15 16:50 東南東 7 10km以上 7 66 1006
15 15:50 南東 9 10km以上 7 70 1005
15 15:20 東南東 10 10km以上 7 70 1005
15 14:50 東南東 9 10km以上 7 70 1004
15 14:20 南東 9 10km以上 7 70 1004
15 13:50 東南東 11 10km以上 7 70 1003
15 12:50 東南東 11 10km以上 7 70 1003
15 11:50 東南東 13 10km以上 7 66 1002
15 10:50 南東 11 10km以上 6 70 1001
15 09:50 東南東 10 10km以上 6 70 1000
15 08:50 東南東 10 10km以上 5 75 1000
15 07:50 東南東 10 10km以上 5 70 1000
15 06:50 東南東 12 10km以上 5 70 999
15 05:50 東南東 9 10km以上 5 70 998
15 04:50 南東 7 10km以上 5 75 998
15 03:50 東南東 10 10km以上 5 70 997
15 02:50 東南東 11 10km以上 5 75 997
15 01:50 東南東 12 10km以上 4 81 997 周辺でしゅう雨
15 00:50 東南東 12 10km以上 5 75 996 周辺でしゅう雨
14 23:50 東南東 12 10km以上 4 81 996 周辺でしゅう雨
14 22:50 東南東 14 10km以上 4 81 996 弱い雨
14 22:20 東南東 14 10km以上 4 81 997 弱い雨
14 21:50 東南東 14 10km以上 5 75 997 弱い雨
14 20:50 東南東 14 10km以上 5 75 997
14 18:50 東南東 11 10km以上 5 70 998
14 16:50 東南東 11 10km以上 5 75 999
14 15:50 東南東 10 10km以上 6 70 998
14 14:50 東南東 10 10km以上 6 76 999
14 13:50 南東 10 10km以上 7 70 998
14 12:50 南東 12 10km以上 7 70 998
14 11:50 東南東 11 10km以上 7 70 998
14 10:50 東南東 12 10km以上 7 76 998 弱い雨
14 09:50 南東 9 10km以上 7 76 997
14 08:50 南東 9 10km以上 8 71 997
14 07:50 南東 8 10km以上 9 71 997
14 06:50 南東 11 10km以上 8 76 997
14 05:50 南東 9 10km以上 8 76 996
ENSB 160250Z 12022KT 9999 VCSH FEW015 BKN030 04/M01 Q1014 RMK WIND 1400FT 11026KT
ENSB 160150Z 11018KT 9999 -RA FEW025 BKN035 04/M01 Q1014 RMK WIND 1400FT 09017KT
ENSB 160050Z 12017KT 9999 SCT030 SCT120 04/00 Q1013 RMK WIND 1400FT 11021KT
ENSB 152350Z 13015KT 9999 FEW030 SCT120 05/01 Q1013 RMK WIND 1400FT 11022KT
ENSB 152250Z 12018KT 9999 FEW035 SCT080 06/01 Q1012 RMK WIND 1400FT 11024KT
ENSB 152150Z 12015KT 9999 FEW035 SCT100 05/01 Q1011 RMK WIND 1400FT 11020KT
ENSB 152050Z 12015KT 9999 FEW035 SCT100 06/00 Q1011 RMK WIND 1400FT 12021KT
ENSB 152020Z 12022KT 9999 SCT035 06/01 Q1010 RMK WIND 1400FT 11024KT
ENSB 151850Z 13026KT 9999 SCT035 05/01 Q1009 RMK WIND 1400FT 12025KT
ENSB 151650Z 11020KT 9999 SCT030 06/01 Q1008 RMK WIND 1400FT 10023KT
ENSB 151550Z 12017KT 9999 SCT030 06/01 Q1007 RMK WIND 1400FT 11020KT
ENSB 151450Z 12014KT 9999 SCT035 07/01 Q1006 RMK WIND 1400FT 13025KT
ENSB 151350Z 13018KT 9999 BKN035 07/02 Q1005 RMK WIND 1400FT 12024KT
ENSB 151320Z 12019KT 9999 BKN035 07/02 Q1005 RMK WIND 1400FT 11022KT
ENSB 151250Z 12018KT 9999 BKN035 07/02 Q1004 RMK WIND 1400FT 11018KT
ENSB 151220Z 13017KT 110V170 9999 BKN035 07/02 Q1004 RMK WIND 1400FT 12022KT
ENSB 151150Z 12021KT 9999 BKN035 07/02 Q1003 RMK WIND 1400FT 11025KT
ENSB 151050Z 12022KT 9999 SCT035 SCT080 07/02 Q1003 RMK WIND 1400FT 11027KT
ENSB 150950Z 12025KT 9999 SCT030 SCT080 07/01 Q1002 RMK WIND 1400FT 11029KT
ENSB 150850Z 13021KT 9999 FEW030 SCT035 06/01 Q1001 RMK WIND 1400FT 11026KT
ENSB 150750Z 12019KT 9999 SCT030 SCT035 06/01 Q1000 RMK WIND 1400FT 11024KT
ENSB 150650Z 12019KT 9999 SCT028 BKN050 05/01 Q1000 RMK WIND 1400FT 10024KT
ENSB 150550Z 11019KT 9999 SCT028 05/M00 Q1000 RMK WIND 1400FT 10024KT
ENSB 150450Z 11024KT 9999 SCT025 SCT040 05/00 Q0999 RMK WIND 1400FT 10024KT
ENSB 150350Z 12017KT 9999 SCT025 BKN040 05/00 Q0998 RMK WIND 1400FT 10020KT
ENSB 150250Z 13014KT 100V170 9999 SCT025 BKN055 05/01 Q0998 RMK WIND 1400FT 11024KT
ENSB 150150Z 12020KT 9999 FEW015 BKN025 05/00 Q0997 RMK WIND 1400FT 11025KT
ENSB 150050Z 12022KT 9999 FEW015 BKN025 05/01 Q0997 RMK WIND 1400FT 11025KT
ENSB 142350Z 12023KT 9999 VCSH FEW012 BKN025 04/01 Q0997 RMK WIND 1400FT 09025KT
ENSB 142250Z 12024KT 9999 VCSH FEW012 BKN028 05/01 Q0996 RMK WIND 1400FT 10026KT
ENSB 142150Z 12024KT 9999 VCSH FEW012 BKN025 04/01 Q0996 RMK WIND 1400FT 10026G36KT
ENSB 142050Z 12027KT 9999 -RA FEW012 BKN025 04/01 Q0996 RMK WIND 1400FT 10028KT
ENSB 142020Z 11028KT 9999 -RA FEW012 SCT025 BKN035 04/01 Q0997 RMK WIND 1400FT 10030KT
ENSB 141950Z 12028KT 9999 -RA SCT025 BKN040 05/01 Q0997 RMK WIND 1400FT 10027KT
ENSB 141850Z 11028KT 9999 SCT025 BKN040 05/01 Q0997 RMK WIND 1400FT 10025G37KT
ENSB 141650Z 11022KT 9999 FEW025 BKN040 05/00 Q0998 RMK WIND 1400FT 09020KT
ENSB 141450Z 11021KT 9999 FEW025 BKN035 05/01 Q0999 RMK WIND 1400FT 11025G37KT
ENSB 141350Z 12019KT 9999 SCT025 BKN035 06/01 Q0998 RMK WIND 1400FT 11026G39KT
ENSB 141250Z 12020KT 9999 SCT028 BKN040 06/02 Q0999 RMK WIND 1400FT 09027G38KT
ENSB 141150Z 13019KT 9999 SCT025 BKN040 07/02 Q0998 RMK WIND 1400FT 10027KT
ENSB 141050Z 13024KT 9999 FEW025 SCT035 BKN080 07/02 Q0998 RMK WIND 1400FT 10028KT
ENSB 140950Z 12022G34KT 9999 SCT025 BKN070 07/02 Q0998 RMK WIND 1400FT 12025KT
ENSB 140850Z 12023KT 100V150 9999 -RA SCT030 BKN040 07/03 Q0998 RMK WIND 1400FT 12025KT
ENSB 140750Z 14017KT 110V170 9999 FEW020 BKN035 07/03 Q0997 RMK WIND 1400FT 11026G36KT
ENSB 140650Z 13018G29KT 9999 SCT025 BKN060 08/03 Q0997 RMK WIND 1400FT 11023KT
ENSB 140550Z 14015KT 9999 FEW020 SCT030 BKN110 09/04 Q0997 RMK WIND 1400FT 13021KT
ENSB 140450Z 14021KT 9999 FEW015 SCT035 BKN120 08/04 Q0997 RMK WIND 1400FT 11023KT
ENSB 140350Z 13017KT 9999 FEW015 SCT025 BKN120 08/04 Q0996 RMK WIND 1400FT 13020KT